sensor_id;sensor_type;location;lat;lon;timestamp;P1;durP1;ratioP1;P2;durP2;ratioP2
60885;SDS011;46736;41.654;-8.438;2023-12-14T03:03:55;0.90;;;0.90;;
60885;SDS011;46736;41.654;-8.438;2023-12-14T03:05:55;1.40;;;1.40;;
60885;SDS011;46736;41.654;-8.438;2023-12-14T03:07:56;1.00;;;1.00;;
60885;SDS011;46736;41.654;-8.438;2023-12-14T03:09:56;1.10;;;1.10;;
60885;SDS011;46736;41.654;-8.438;2023-12-14T03:11:57;1.50;;;1.50;;
60885;SDS011;46736;41.654;-8.438;2023-12-14T03:13:57;1.17;;;1.17;;
60885;SDS011;46736;41.654;-8.438;2023-12-14T03:15:58;1.10;;;1.10;;
60885;SDS011;46736;41.654;-8.438;2023-12-14T03:17:59;0.82;;;0.82;;
60885;SDS011;46736;41.654;-8.438;2023-12-14T03:19:59;1.30;;;1.30;;
60885;SDS011;46736;41.654;-8.438;2023-12-14T03:22:00;1.27;;;1.27;;
60885;SDS011;46736;41.654;-8.438;2023-12-14T03:24:00;0.93;;;0.93;;
60885;SDS011;46736;41.654;-8.438;2023-12-14T03:26:01;0.90;;;0.90;;
60885;SDS011;46736;41.654;-8.438;2023-12-14T03:28:02;1.17;;;1.17;;
60885;SDS011;46736;41.654;-8.438;2023-12-14T03:30:03;1.05;;;1.05;;
60885;SDS011;46736;41.654;-8.438;2023-12-14T03:32:08;0.90;;;0.90;;
60885;SDS011;46736;41.654;-8.438;2023-12-14T03:34:08;0.90;;;0.90;;
60885;SDS011;46736;41.654;-8.438;2023-12-14T03:36:09;1.20;;;1.20;;
60885;SDS011;46736;41.654;-8.438;2023-12-14T03:38:09;1.10;;;1.10;;
60885;SDS011;46736;41.654;-8.438;2023-12-14T03:40:10;1.50;;;1.50;;
60885;SDS011;46736;41.654;-8.438;2023-12-14T03:42:10;1.33;;;1.33;;
60885;SDS011;46736;41.654;-8.438;2023-12-14T03:44:11;1.00;;;1.00;;
60885;SDS011;46736;41.654;-8.438;2023-12-14T03:46:11;1.05;;;1.05;;
60885;SDS011;46736;41.654;-8.438;2023-12-14T03:48:12;1.50;;;1.50;;
60885;SDS011;46736;41.654;-8.438;2023-12-14T03:50:12;1.30;;;1.30;;
60885;SDS011;46736;41.654;-8.438;2023-12-14T03:52:13;1.10;;;1.10;;
60885;SDS011;46736;41.654;-8.438;2023-12-14T03:54:14;1.20;;;1.20;;
60885;SDS011;46736;41.654;-8.438;2023-12-14T03:56:14;1.35;;;1.35;;
60885;SDS011;46736;41.654;-8.438;2023-12-14T03:58:14;1.05;;;1.05;;
60885;SDS011;46736;41.654;-8.438;2023-12-14T04:00:15;1.05;;;1.05;;
60885;SDS011;46736;41.654;-8.438;2023-12-14T04:02:16;1.60;;;1.60;;
60885;SDS011;46736;41.654;-8.438;2023-12-14T04:04:16;1.10;;;1.10;;
60885;SDS011;46736;41.654;-8.438;2023-12-14T04:06:17;1.08;;;1.08;;
60885;SDS011;46736;41.654;-8.438;2023-12-14T04:08:17;1.10;;;1.10;;
60885;SDS011;46736;41.654;-8.438;2023-12-14T04:10:18;1.35;;;1.35;;
60885;SDS011;46736;41.654;-8.438;2023-12-14T04:12:19;1.60;;;1.60;;
60885;SDS011;46736;41.654;-8.438;2023-12-14T04:14:20;1.30;;;1.30;;
60885;SDS011;46736;41.654;-8.438;2023-12-14T04:16:20;1.48;;;1.48;;
60885;SDS011;46736;41.654;-8.438;2023-12-14T04:18:21;1.13;;;1.13;;
60885;SDS011;46736;41.654;-8.438;2023-12-14T04:20:21;1.30;;;1.30;;
60885;SDS011;46736;41.654;-8.438;2023-12-14T04:22:22;1.40;;;1.40;;
60885;SDS011;46736;41.654;-8.438;2023-12-14T04:24:22;1.50;;;1.50;;
60885;SDS011;46736;41.654;-8.438;2023-12-14T04:26:23;1.20;;;1.20;;
60885;SDS011;46736;41.654;-8.438;2023-12-14T04:28:24;1.20;;;1.20;;
60885;SDS011;46736;41.654;-8.438;2023-12-14T04:30:24;1.35;;;1.35;;
60885;SDS011;46736;41.654;-8.438;2023-12-14T04:32:25;1.58;;;1.58;;
60885;SDS011;46736;41.654;-8.438;2023-12-14T04:34:25;1.50;;;1.50;;
60885;SDS011;46736;41.654;-8.438;2023-12-14T04:36:26;1.50;;;1.50;;
60885;SDS011;46736;41.654;-8.438;2023-12-14T04:38:26;1.60;;;1.60;;
60885;SDS011;46736;41.654;-8.438;2023-12-14T04:40:27;1.35;;;1.35;;
60885;SDS011;46736;41.654;-8.438;2023-12-14T04:42:28;1.30;;;1.30;;
60885;SDS011;46736;41.654;-8.438;2023-12-14T04:44:28;1.00;;;1.00;;
60885;SDS011;46736;41.654;-8.438;2023-12-14T04:46:29;1.10;;;1.10;;
60885;SDS011;46736;41.654;-8.438;2023-12-14T04:48:29;1.30;;;1.30;;
60885;SDS011;46736;41.654;-8.438;2023-12-14T04:50:29;1.50;;;1.50;;
60885;SDS011;46736;41.654;-8.438;2023-12-14T04:52:30;1.40;;;1.40;;
60885;SDS011;46736;41.654;-8.438;2023-12-14T04:54:31;1.50;;;1.50;;
60885;SDS011;46736;41.654;-8.438;2023-12-14T04:56:31;1.40;;;1.40;;
60885;SDS011;46736;41.654;-8.438;2023-12-14T04:58:32;1.40;;;1.40;;
60885;SDS011;46736;41.654;-8.438;2023-12-14T05:00:32;1.50;;;1.50;;
60885;SDS011;46736;41.654;-8.438;2023-12-14T05:02:33;1.40;;;1.40;;
60885;SDS011;46736;41.654;-8.438;2023-12-14T05:04:33;1.40;;;1.40;;
60885;SDS011;46736;41.654;-8.438;2023-12-14T05:06:34;1.35;;;1.35;;
60885;SDS011;46736;41.654;-8.438;2023-12-14T05:08:35;1.40;;;1.40;;
60885;SDS011;46736;41.654;-8.438;2023-12-14T05:10:36;1.40;;;1.40;;
60885;SDS011;46736;41.654;-8.438;2023-12-14T05:12:36;1.40;;;1.40;;
60885;SDS011;46736;41.654;-8.438;2023-12-14T05:14:37;1.70;;;1.70;;
60885;SDS011;46736;41.654;-8.438;2023-12-14T05:16:37;1.70;;;1.70;;
60885;SDS011;46736;41.654;-8.438;2023-12-14T05:18:38;1.60;;;1.60;;
60885;SDS011;46736;41.654;-8.438;2023-12-14T05:20:38;1.55;;;1.55;;
60885;SDS011;46736;41.654;-8.438;2023-12-14T05:22:39;1.23;;;1.23;;
60885;SDS011;46736;41.654;-8.438;2023-12-14T05:24:39;1.52;;;1.52;;
60885;SDS011;46736;41.654;-8.438;2023-12-14T05:26:40;1.63;;;1.63;;
60885;SDS011;46736;41.654;-8.438;2023-12-14T05:28:41;1.20;;;1.20;;
60885;SDS011;46736;41.654;-8.438;2023-12-14T05:30:42;1.50;;;1.50;;
60885;SDS011;46736;41.654;-8.438;2023-12-14T05:32:42;1.60;;;1.60;;
60885;SDS011;46736;41.654;-8.438;2023-12-14T05:34:43;1.60;;;1.60;;
60885;SDS011;46736;41.654;-8.438;2023-12-14T05:36:43;1.52;;;1.52;;
60885;SDS011;46736;41.654;-8.438;2023-12-14T05:38:44;1.80;;;1.80;;
60885;SDS011;46736;41.654;-8.438;2023-12-14T05:40:44;1.35;;;1.35;;
60885;SDS011;46736;41.654;-8.438;2023-12-14T05:42:45;1.50;;;1.50;;
60885;SDS011;46736;41.654;-8.438;2023-12-14T05:44:45;1.35;;;1.35;;
60885;SDS011;46736;41.654;-8.438;2023-12-14T05:46:46;1.48;;;1.48;;
60885;SDS011;46736;41.654;-8.438;2023-12-14T05:48:47;1.48;;;1.48;;
60885;SDS011;46736;41.654;-8.438;2023-12-14T05:50:47;1.20;;;1.20;;
60885;SDS011;46736;41.654;-8.438;2023-12-14T05:52:48;1.50;;;1.50;;
60885;SDS011;46736;41.654;-8.438;2023-12-14T05:54:49;1.50;;;1.50;;
60885;SDS011;46736;41.654;-8.438;2023-12-14T05:56:49;1.60;;;1.60;;
60885;SDS011;46736;41.654;-8.438;2023-12-14T05:58:50;1.50;;;1.50;;
60885;SDS011;46736;41.654;-8.438;2023-12-14T06:00:50;1.60;;;1.60;;
60885;SDS011;46736;41.654;-8.438;2023-12-14T06:02:50;1.60;;;1.60;;
60885;SDS011;46736;41.654;-8.438;2023-12-14T06:04:51;1.30;;;1.30;;
60885;SDS011;46736;41.654;-8.438;2023-12-14T06:06:52;1.50;;;1.50;;
60885;SDS011;46736;41.654;-8.438;2023-12-14T06:08:53;1.50;;;1.50;;
60885;SDS011;46736;41.654;-8.438;2023-12-14T06:10:53;1.52;;;1.52;;
60885;SDS011;46736;41.654;-8.438;2023-12-14T06:12:54;1.55;;;1.55;;
60885;SDS011;46736;41.654;-8.438;2023-12-14T06:14:55;1.58;;;1.58;;
60885;SDS011;46736;41.654;-8.438;2023-12-14T06:16:55;1.60;;;1.60;;
60885;SDS011;46736;41.654;-8.438;2023-12-14T06:18:56;1.60;;;1.60;;
60885;SDS011;46736;41.654;-8.438;2023-12-14T06:20:56;1.50;;;1.50;;
60885;SDS011;46736;41.654;-8.438;2023-12-14T06:22:57;1.60;;;1.60;;
60885;SDS011;46736;41.654;-8.438;2023-12-14T06:24:57;1.60;;;1.60;;
60885;SDS011;46736;41.654;-8.438;2023-12-14T06:26:58;1.45;;;1.45;;
60885;SDS011;46736;41.654;-8.438;2023-12-14T06:28:58;1.42;;;1.42;;
60885;SDS011;46736;41.654;-8.438;2023-12-14T06:30:59;1.70;;;1.70;;
60885;SDS011;46736;41.654;-8.438;2023-12-14T06:33:01;1.55;;;1.55;;
60885;SDS011;46736;41.654;-8.438;2023-12-14T06:35:02;1.45;;;1.45;;
60885;SDS011;46736;41.654;-8.438;2023-12-14T06:37:02;1.63;;;1.63;;
60885;SDS011;46736;41.654;-8.438;2023-12-14T06:39:03;1.60;;;1.60;;
60885;SDS011;46736;41.654;-8.438;2023-12-14T06:41:03;1.70;;;1.70;;
60885;SDS011;46736;41.654;-8.438;2023-12-14T06:43:04;1.65;;;1.65;;
60885;SDS011;46736;41.654;-8.438;2023-12-14T06:45:05;1.70;;;1.70;;
60885;SDS011;46736;41.654;-8.438;2023-12-14T06:47:06;1.70;;;1.70;;
60885;SDS011;46736;41.654;-8.438;2023-12-14T06:49:07;1.67;;;1.67;;
60885;SDS011;46736;41.654;-8.438;2023-12-14T06:51:07;1.55;;;1.55;;
60885;SDS011;46736;41.654;-8.438;2023-12-14T06:53:08;1.45;;;1.45;;
60885;SDS011;46736;41.654;-8.438;2023-12-14T06:55:08;1.60;;;1.60;;
60885;SDS011;46736;41.654;-8.438;2023-12-14T06:57:09;1.67;;;1.67;;
60885;SDS011;46736;41.654;-8.438;2023-12-14T06:59:10;1.75;;;1.75;;
60885;SDS011;46736;41.654;-8.438;2023-12-14T07:01:12;1.60;;;1.60;;
60885;SDS011;46736;41.654;-8.438;2023-12-14T07:03:14;1.75;;;1.75;;
60885;SDS011;46736;41.654;-8.438;2023-12-14T07:05:14;1.70;;;1.70;;
60885;SDS011;46736;41.654;-8.438;2023-12-14T07:07:15;1.60;;;1.60;;
60885;SDS011;46736;41.654;-8.438;2023-12-14T07:09:16;1.70;;;1.70;;
60885;SDS011;46736;41.654;-8.438;2023-12-14T07:11:16;1.70;;;1.70;;
60885;SDS011;46736;41.654;-8.438;2023-12-14T07:13:17;1.50;;;1.50;;
60885;SDS011;46736;41.654;-8.438;2023-12-14T07:15:27;1.52;;;1.52;;
60885;SDS011;46736;41.654;-8.438;2023-12-14T07:17:28;1.60;;;1.60;;
60885;SDS011;46736;41.654;-8.438;2023-12-14T07:19:28;1.50;;;1.50;;
60885;SDS011;46736;41.654;-8.438;2023-12-14T07:21:29;1.60;;;1.60;;
60885;SDS011;46736;41.654;-8.438;2023-12-14T07:23:30;1.70;;;1.70;;
60885;SDS011;46736;41.654;-8.438;2023-12-14T07:25:30;1.60;;;1.60;;
60885;SDS011;46736;41.654;-8.438;2023-12-14T07:27:31;1.67;;;1.67;;
60885;SDS011;46736;41.654;-8.438;2023-12-14T07:29:31;1.60;;;1.60;;
60885;SDS011;46736;41.654;-8.438;2023-12-14T07:31:32;1.50;;;1.50;;
60885;SDS011;46736;41.654;-8.438;2023-12-14T07:33:34;1.70;;;1.70;;
60885;SDS011;46736;41.654;-8.438;2023-12-14T07:35:35;1.55;;;1.55;;
60885;SDS011;46736;41.654;-8.438;2023-12-14T07:37:36;1.58;;;1.58;;
60885;SDS011;46736;41.654;-8.438;2023-12-14T07:39:36;1.50;;;1.50;;
60885;SDS011;46736;41.654;-8.438;2023-12-14T07:41:37;1.63;;;1.63;;
60885;SDS011;46736;41.654;-8.438;2023-12-14T07:43:37;1.50;;;1.50;;
60885;SDS011;46736;41.654;-8.438;2023-12-14T07:45:38;1.52;;;1.52;;
60885;SDS011;46736;41.654;-8.438;2023-12-14T07:47:38;1.70;;;1.70;;
60885;SDS011;46736;41.654;-8.438;2023-12-14T07:49:39;1.45;;;1.45;;
60885;SDS011;46736;41.654;-8.438;2023-12-14T07:51:39;1.50;;;1.50;;
60885;SDS011;46736;41.654;-8.438;2023-12-14T07:53:40;1.70;;;1.70;;
60885;SDS011;46736;41.654;-8.438;2023-12-14T07:55:41;1.60;;;1.60;;
60885;SDS011;46736;41.654;-8.438;2023-12-14T07:57:42;1.70;;;1.70;;
60885;SDS011;46736;41.654;-8.438;2023-12-14T07:59:42;1.60;;;1.60;;
60885;SDS011;46736;41.654;-8.438;2023-12-14T08:01:43;1.58;;;1.58;;
60885;SDS011;46736;41.654;-8.438;2023-12-14T08:03:43;1.50;;;1.50;;
60885;SDS011;46736;41.654;-8.438;2023-12-14T08:05:44;1.30;;;1.30;;
60885;SDS011;46736;41.654;-8.438;2023-12-14T08:07:44;1.70;;;1.70;;
60885;SDS011;46736;41.654;-8.438;2023-12-14T08:09:45;1.60;;;1.60;;
60885;SDS011;46736;41.654;-8.438;2023-12-14T08:11:45;1.60;;;1.60;;
60885;SDS011;46736;41.654;-8.438;2023-12-14T08:13:46;1.50;;;1.50;;
60885;SDS011;46736;41.654;-8.438;2023-12-14T08:15:47;1.50;;;1.50;;
60885;SDS011;46736;41.654;-8.438;2023-12-14T08:17:51;1.55;;;1.55;;
60885;SDS011;46736;41.654;-8.438;2023-12-14T08:19:51;1.52;;;1.52;;
60885;SDS011;46736;41.654;-8.438;2023-12-14T08:21:53;1.58;;;1.58;;
60885;SDS011;46736;41.654;-8.438;2023-12-14T08:23:53;1.70;;;1.70;;
60885;SDS011;46736;41.654;-8.438;2023-12-14T08:25:54;1.50;;;1.50;;
60885;SDS011;46736;41.654;-8.438;2023-12-14T08:27:57;1.70;;;1.70;;
60885;SDS011;46736;41.654;-8.438;2023-12-14T08:29:57;1.60;;;1.60;;
60885;SDS011;46736;41.654;-8.438;2023-12-14T08:31:58;1.50;;;1.50;;
60885;SDS011;46736;41.654;-8.438;2023-12-14T08:33:59;1.80;;;1.80;;
60885;SDS011;46736;41.654;-8.438;2023-12-14T08:36:00;1.60;;;1.60;;
60885;SDS011;46736;41.654;-8.438;2023-12-14T08:38:02;1.70;;;1.70;;
60885;SDS011;46736;41.654;-8.438;2023-12-14T08:40:08;1.38;;;1.38;;
60885;SDS011;46736;41.654;-8.438;2023-12-14T08:42:09;1.63;;;1.63;;
60885;SDS011;46736;41.654;-8.438;2023-12-14T08:44:12;1.50;;;1.50;;
60885;SDS011;46736;41.654;-8.438;2023-12-14T08:46:20;1.00;;;1.00;;
60885;SDS011;46736;41.654;-8.438;2023-12-14T08:48:27;1.40;;;1.40;;
60885;SDS011;46736;41.654;-8.438;2023-12-14T08:50:29;1.40;;;1.40;;
60885;SDS011;46736;41.654;-8.438;2023-12-14T08:52:30;1.50;;;1.50;;
60885;SDS011;46736;41.654;-8.438;2023-12-14T08:54:31;1.45;;;1.45;;
60885;SDS011;46736;41.654;-8.438;2023-12-14T08:56:32;1.17;;;1.17;;
60885;SDS011;46736;41.654;-8.438;2023-12-14T08:58:32;1.00;;;1.00;;
60885;SDS011;46736;41.654;-8.438;2023-12-14T09:00:33;0.50;;;0.50;;
60885;SDS011;46736;41.654;-8.438;2023-12-14T09:02:40;0.60;;;0.60;;
60885;SDS011;46736;41.654;-8.438;2023-12-14T09:04:40;0.45;;;0.45;;
60885;SDS011;46736;41.654;-8.438;2023-12-14T09:06:41;0.30;;;0.30;;
60885;SDS011;46736;41.654;-8.438;2023-12-14T09:08:51;0.50;;;0.50;;
60885;SDS011;46736;41.654;-8.438;2023-12-14T09:10:52;0.50;;;0.50;;
60885;SDS011;46736;41.654;-8.438;2023-12-14T09:12:55;0.50;;;0.50;;
60885;SDS011;46736;41.654;-8.438;2023-12-14T09:14:56;0.30;;;0.30;;
60885;SDS011;46736;41.654;-8.438;2023-12-14T09:16:57;0.40;;;0.40;;
60885;SDS011;46736;41.654;-8.438;2023-12-14T09:19:04;0.30;;;0.30;;
60885;SDS011;46736;41.654;-8.438;2023-12-14T09:21:13;0.50;;;0.50;;
60885;SDS011;46736;41.654;-8.438;2023-12-14T09:23:24;0.30;;;0.30;;
60885;SDS011;46736;41.654;-8.438;2023-12-14T09:25:25;0.30;;;0.30;;
60885;SDS011;46736;41.654;-8.438;2023-12-14T09:27:25;0.30;;;0.30;;
60885;SDS011;46736;41.654;-8.438;2023-12-14T09:29:26;0.30;;;0.30;;
60885;SDS011;46736;41.654;-8.438;2023-12-14T09:31:27;0.30;;;0.30;;
60885;SDS011;46736;41.654;-8.438;2023-12-14T09:33:28;0.25;;;0.25;;
60885;SDS011;46736;41.654;-8.438;2023-12-14T09:35:29;0.20;;;0.20;;
60885;SDS011;46736;41.654;-8.438;2023-12-14T09:37:30;0.30;;;0.30;;
60885;SDS011;46736;41.654;-8.438;2023-12-14T09:39:31;0.20;;;0.20;;
60885;SDS011;46736;41.654;-8.438;2023-12-14T09:41:32;0.30;;;0.30;;
60885;SDS011;46736;41.654;-8.438;2023-12-14T09:43:35;0.30;;;0.30;;
60885;SDS011;46736;41.654;-8.438;2023-12-14T09:45:36;0.30;;;0.30;;
60885;SDS011;46736;41.654;-8.438;2023-12-14T09:47:40;0.30;;;0.30;;
60885;SDS011;46736;41.654;-8.438;2023-12-14T09:49:41;0.20;;;0.20;;
60885;SDS011;46736;41.654;-8.438;2023-12-14T09:51:44;0.20;;;0.20;;
60885;SDS011;46736;41.654;-8.438;2023-12-14T09:53:45;0.30;;;0.30;;
60885;SDS011;46736;41.654;-8.438;2023-12-14T09:55:45;0.30;;;0.30;;
60885;SDS011;46736;41.654;-8.438;2023-12-14T09:57:46;0.30;;;0.30;;
60885;SDS011;46736;41.654;-8.438;2023-12-14T09:59:54;0.20;;;0.20;;
60885;SDS011;46736;41.654;-8.438;2023-12-14T10:04:13;0.20;;;0.20;;
60885;SDS011;46736;41.654;-8.438;2023-12-14T10:06:14;0.20;;;0.20;;
60885;SDS011;46736;41.654;-8.438;2023-12-14T10:08:15;0.20;;;0.20;;
60885;SDS011;46736;41.654;-8.438;2023-12-14T10:10:17;0.20;;;0.20;;
60885;SDS011;46736;41.654;-8.438;2023-12-14T10:12:18;0.20;;;0.20;;
60885;SDS011;46736;41.654;-8.438;2023-12-14T10:14:23;0.20;;;0.20;;
60885;SDS011;46736;41.654;-8.438;2023-12-14T10:16:32;0.30;;;0.30;;
60885;SDS011;46736;41.654;-8.438;2023-12-14T10:18:33;0.20;;;0.20;;
60885;SDS011;46736;41.654;-8.438;2023-12-14T10:20:35;0.20;;;0.20;;
60885;SDS011;46736;41.654;-8.438;2023-12-14T10:22:37;0.30;;;0.30;;
60885;SDS011;46736;41.654;-8.438;2023-12-14T10:24:37;0.20;;;0.20;;
60885;SDS011;46736;41.654;-8.438;2023-12-14T10:26:38;0.20;;;0.20;;
60885;SDS011;46736;41.654;-8.438;2023-12-14T10:28:40;0.20;;;0.20;;
60885;SDS011;46736;41.654;-8.438;2023-12-14T10:30:41;0.20;;;0.20;;
60885;SDS011;46736;41.654;-8.438;2023-12-14T10:32:42;0.20;;;0.20;;
60885;SDS011;46736;41.654;-8.438;2023-12-14T10:34:42;0.20;;;0.20;;
60885;SDS011;46736;41.654;-8.438;2023-12-14T10:36:43;0.20;;;0.20;;
60885;SDS011;46736;41.654;-8.438;2023-12-14T10:38:47;0.20;;;0.20;;
60885;SDS011;46736;41.654;-8.438;2023-12-14T10:40:48;0.30;;;0.30;;
60885;SDS011;46736;41.654;-8.438;2023-12-14T10:42:49;0.30;;;0.30;;
60885;SDS011;46736;41.654;-8.438;2023-12-14T10:44:53;0.30;;;0.30;;
60885;SDS011;46736;41.654;-8.438;2023-12-14T10:46:57;0.20;;;0.20;;
60885;SDS011;46736;41.654;-8.438;2023-12-14T10:48:58;0.20;;;0.20;;
60885;SDS011;46736;41.654;-8.438;2023-12-14T10:51:02;0.30;;;0.30;;
60885;SDS011;46736;41.654;-8.438;2023-12-14T10:53:29;0.20;;;0.20;;
60885;SDS011;46736;41.654;-8.438;2023-12-14T10:55:33;0.20;;;0.20;;
60885;SDS011;46736;41.654;-8.438;2023-12-14T10:57:37;0.20;;;0.20;;
60885;SDS011;46736;41.654;-8.438;2023-12-14T10:59:39;0.20;;;0.20;;
60885;SDS011;46736;41.654;-8.438;2023-12-14T11:01:45;0.15;;;0.15;;
60885;SDS011;46736;41.654;-8.438;2023-12-14T11:04:08;0.20;;;0.20;;
60885;SDS011;46736;41.654;-8.438;2023-12-14T11:08:34;0.20;;;0.20;;
60885;SDS011;46736;41.654;-8.438;2023-12-14T11:10:36;0.20;;;0.20;;
60885;SDS011;46736;41.654;-8.438;2023-12-14T11:12:50;0.10;;;0.10;;
60885;SDS011;46736;41.654;-8.438;2023-12-14T11:14:51;0.20;;;0.20;;
60885;SDS011;46736;41.654;-8.438;2023-12-14T11:21:23;0.20;;;0.20;;
60885;SDS011;46736;41.654;-8.438;2023-12-14T11:23:29;0.20;;;0.20;;
60885;SDS011;46736;41.654;-8.438;2023-12-14T11:25:33;0.20;;;0.20;;
60885;SDS011;46736;41.654;-8.438;2023-12-14T11:27:33;0.20;;;0.20;;
60885;SDS011;46736;41.654;-8.438;2023-12-14T11:29:43;0.20;;;0.20;;
60885;SDS011;46736;41.654;-8.438;2023-12-14T11:31:44;0.20;;;0.20;;
60885;SDS011;46736;41.654;-8.438;2023-12-14T11:33:44;0.20;;;0.20;;
60885;SDS011;46736;41.654;-8.438;2023-12-14T11:35:45;0.20;;;0.20;;
60885;SDS011;46736;41.654;-8.438;2023-12-14T11:37:46;0.20;;;0.20;;
60885;SDS011;46736;41.654;-8.438;2023-12-14T11:39:48;0.20;;;0.20;;
60885;SDS011;46736;41.654;-8.438;2023-12-14T11:41:59;0.20;;;0.20;;
60885;SDS011;46736;41.654;-8.438;2023-12-14T11:44:00;0.20;;;0.20;;
60885;SDS011;46736;41.654;-8.438;2023-12-14T11:46:01;0.20;;;0.20;;
60885;SDS011;46736;41.654;-8.438;2023-12-14T11:48:03;0.20;;;0.20;;
60885;SDS011;46736;41.654;-8.438;2023-12-14T11:50:26;0.20;;;0.20;;
60885;SDS011;46736;41.654;-8.438;2023-12-14T11:52:27;0.20;;;0.20;;
60885;SDS011;46736;41.654;-8.438;2023-12-14T11:54:28;0.30;;;0.30;;
60885;SDS011;46736;41.654;-8.438;2023-12-14T11:56:28;0.30;;;0.30;;
60885;SDS011;46736;41.654;-8.438;2023-12-14T11:58:33;0.30;;;0.30;;
60885;SDS011;46736;41.654;-8.438;2023-12-14T12:00:36;0.30;;;0.30;;
60885;SDS011;46736;41.654;-8.438;2023-12-14T12:02:38;0.30;;;0.30;;
60885;SDS011;46736;41.654;-8.438;2023-12-14T12:04:49;0.20;;;0.20;;
60885;SDS011;46736;41.654;-8.438;2023-12-14T12:06:50;0.20;;;0.20;;
60885;SDS011;46736;41.654;-8.438;2023-12-14T12:08:51;0.20;;;0.20;;
60885;SDS011;46736;41.654;-8.438;2023-12-14T12:10:52;0.20;;;0.20;;
60885;SDS011;46736;41.654;-8.438;2023-12-14T12:12:58;0.20;;;0.20;;
60885;SDS011;46736;41.654;-8.438;2023-12-14T12:14:59;0.30;;;0.30;;
60885;SDS011;46736;41.654;-8.438;2023-12-14T12:16:59;0.20;;;0.20;;
60885;SDS011;46736;41.654;-8.438;2023-12-14T12:19:00;0.30;;;0.30;;
60885;SDS011;46736;41.654;-8.438;2023-12-14T12:21:01;0.20;;;0.20;;
60885;SDS011;46736;41.654;-8.438;2023-12-14T12:23:05;0.20;;;0.20;;
60885;SDS011;46736;41.654;-8.438;2023-12-14T12:25:06;0.30;;;0.30;;
60885;SDS011;46736;41.654;-8.438;2023-12-14T12:27:07;0.25;;;0.25;;
60885;SDS011;46736;41.654;-8.438;2023-12-14T12:29:12;0.20;;;0.20;;
60885;SDS011;46736;41.654;-8.438;2023-12-14T12:31:12;0.30;;;0.30;;
60885;SDS011;46736;41.654;-8.438;2023-12-14T12:33:13;0.20;;;0.20;;
60885;SDS011;46736;41.654;-8.438;2023-12-14T12:35:13;0.30;;;0.30;;
60885;SDS011;46736;41.654;-8.438;2023-12-14T12:37:14;0.30;;;0.30;;
60885;SDS011;46736;41.654;-8.438;2023-12-14T12:39:14;0.20;;;0.20;;
60885;SDS011;46736;41.654;-8.438;2023-12-14T12:41:16;0.20;;;0.20;;
60885;SDS011;46736;41.654;-8.438;2023-12-14T12:43:16;0.30;;;0.30;;
60885;SDS011;46736;41.654;-8.438;2023-12-14T12:45:17;0.25;;;0.25;;
60885;SDS011;46736;41.654;-8.438;2023-12-14T12:47:18;0.20;;;0.20;;
60885;SDS011;46736;41.654;-8.438;2023-12-14T12:49:22;0.30;;;0.30;;
60885;SDS011;46736;41.654;-8.438;2023-12-14T12:51:22;0.20;;;0.20;;
60885;SDS011;46736;41.654;-8.438;2023-12-14T12:53:23;0.30;;;0.30;;
60885;SDS011;46736;41.654;-8.438;2023-12-14T12:55:23;0.30;;;0.30;;
60885;SDS011;46736;41.654;-8.438;2023-12-14T12:57:29;0.30;;;0.30;;
60885;SDS011;46736;41.654;-8.438;2023-12-14T12:59:29;0.20;;;0.20;;
60885;SDS011;46736;41.654;-8.438;2023-12-14T13:01:30;0.20;;;0.20;;
60885;SDS011;46736;41.654;-8.438;2023-12-14T13:03:31;0.20;;;0.20;;
60885;SDS011;46736;41.654;-8.438;2023-12-14T13:05:31;0.30;;;0.30;;
60885;SDS011;46736;41.654;-8.438;2023-12-14T13:07:32;0.30;;;0.30;;
60885;SDS011;46736;41.654;-8.438;2023-12-14T13:09:33;0.30;;;0.30;;
60885;SDS011;46736;41.654;-8.438;2023-12-14T13:11:33;0.20;;;0.20;;
60885;SDS011;46736;41.654;-8.438;2023-12-14T13:13:34;0.20;;;0.20;;
60885;SDS011;46736;41.654;-8.438;2023-12-14T13:15:34;0.30;;;0.30;;
60885;SDS011;46736;41.654;-8.438;2023-12-14T13:17:39;0.30;;;0.30;;
60885;SDS011;46736;41.654;-8.438;2023-12-14T13:19:39;0.30;;;0.30;;
60885;SDS011;46736;41.654;-8.438;2023-12-14T13:21:40;0.30;;;0.30;;
60885;SDS011;46736;41.654;-8.438;2023-12-14T13:23:41;0.30;;;0.30;;
60885;SDS011;46736;41.654;-8.438;2023-12-14T13:25:42;0.30;;;0.30;;
60885;SDS011;46736;41.654;-8.438;2023-12-14T13:27:45;0.30;;;0.30;;
60885;SDS011;46736;41.654;-8.438;2023-12-14T13:29:45;0.30;;;0.30;;
60885;SDS011;46736;41.654;-8.438;2023-12-14T13:31:46;0.30;;;0.30;;
60885;SDS011;46736;41.654;-8.438;2023-12-14T13:33:47;0.30;;;0.30;;
60885;SDS011;46736;41.654;-8.438;2023-12-14T13:35:48;0.30;;;0.30;;
60885;SDS011;46736;41.654;-8.438;2023-12-14T13:37:48;0.30;;;0.30;;
60885;SDS011;46736;41.654;-8.438;2023-12-14T13:39:49;0.30;;;0.30;;
60885;SDS011;46736;41.654;-8.438;2023-12-14T13:41:50;0.30;;;0.30;;
60885;SDS011;46736;41.654;-8.438;2023-12-14T13:43:54;0.30;;;0.30;;
60885;SDS011;46736;41.654;-8.438;2023-12-14T13:45:56;0.28;;;0.28;;
60885;SDS011;46736;41.654;-8.438;2023-12-14T13:48:00;0.20;;;0.20;;
60885;SDS011;46736;41.654;-8.438;2023-12-14T13:50:02;0.30;;;0.30;;
60885;SDS011;46736;41.654;-8.438;2023-12-14T13:52:09;0.30;;;0.30;;
60885;SDS011;46736;41.654;-8.438;2023-12-14T13:54:12;0.30;;;0.30;;
60885;SDS011;46736;41.654;-8.438;2023-12-14T13:56:13;0.30;;;0.30;;
60885;SDS011;46736;41.654;-8.438;2023-12-14T13:58:14;0.30;;;0.30;;
60885;SDS011;46736;41.654;-8.438;2023-12-14T14:00:15;0.30;;;0.30;;
60885;SDS011;46736;41.654;-8.438;2023-12-14T14:02:17;0.30;;;0.30;;
60885;SDS011;46736;41.654;-8.438;2023-12-14T14:04:24;0.40;;;0.40;;
60885;SDS011;46736;41.654;-8.438;2023-12-14T14:06:29;0.30;;;0.30;;
60885;SDS011;46736;41.654;-8.438;2023-12-14T14:08:35;0.30;;;0.30;;
60885;SDS011;46736;41.654;-8.438;2023-12-14T14:10:37;0.30;;;0.30;;
60885;SDS011;46736;41.654;-8.438;2023-12-14T14:12:45;0.30;;;0.30;;
60885;SDS011;46736;41.654;-8.438;2023-12-14T14:14:49;0.30;;;0.30;;
60885;SDS011;46736;41.654;-8.438;2023-12-14T14:17:12;0.28;;;0.28;;
60885;SDS011;46736;41.654;-8.438;2023-12-14T14:19:13;0.40;;;0.40;;
60885;SDS011;46736;41.654;-8.438;2023-12-14T14:21:14;0.30;;;0.30;;
60885;SDS011;46736;41.654;-8.438;2023-12-14T14:23:27;0.40;;;0.40;;
60885;SDS011;46736;41.654;-8.438;2023-12-14T14:25:28;0.40;;;0.40;;
60885;SDS011;46736;41.654;-8.438;2023-12-14T14:27:32;0.30;;;0.30;;
60885;SDS011;46736;41.654;-8.438;2023-12-14T14:29:37;0.30;;;0.30;;
60885;SDS011;46736;41.654;-8.438;2023-12-14T14:31:43;0.40;;;0.40;;
60885;SDS011;46736;41.654;-8.438;2023-12-14T14:33:44;0.38;;;0.38;;
60885;SDS011;46736;41.654;-8.438;2023-12-14T14:35:45;0.38;;;0.38;;
60885;SDS011;46736;41.654;-8.438;2023-12-14T14:37:46;0.40;;;0.40;;
60885;SDS011;46736;41.654;-8.438;2023-12-14T14:39:47;0.40;;;0.40;;
60885;SDS011;46736;41.654;-8.438;2023-12-14T14:41:59;0.40;;;0.40;;
60885;SDS011;46736;41.654;-8.438;2023-12-14T14:44:05;0.40;;;0.40;;
60885;SDS011;46736;41.654;-8.438;2023-12-14T14:46:11;0.32;;;0.32;;
60885;SDS011;46736;41.654;-8.438;2023-12-14T14:48:12;0.45;;;0.45;;
60885;SDS011;46736;41.654;-8.438;2023-12-14T14:50:13;0.43;;;0.43;;
60885;SDS011;46736;41.654;-8.438;2023-12-14T14:52:14;0.40;;;0.40;;
60885;SDS011;46736;41.654;-8.438;2023-12-14T14:54:16;0.40;;;0.40;;
60885;SDS011;46736;41.654;-8.438;2023-12-14T14:56:18;0.50;;;0.50;;
60885;SDS011;46736;41.654;-8.438;2023-12-14T14:58:19;0.40;;;0.40;;
60885;SDS011;46736;41.654;-8.438;2023-12-14T15:00:23;0.40;;;0.40;;
60885;SDS011;46736;41.654;-8.438;2023-12-14T15:02:44;0.50;;;0.50;;
60885;SDS011;46736;41.654;-8.438;2023-12-14T15:04:46;0.40;;;0.40;;
60885;SDS011;46736;41.654;-8.438;2023-12-14T15:06:47;0.40;;;0.40;;
60885;SDS011;46736;41.654;-8.438;2023-12-14T15:08:48;0.40;;;0.40;;
60885;SDS011;46736;41.654;-8.438;2023-12-14T15:10:50;0.50;;;0.50;;
60885;SDS011;46736;41.654;-8.438;2023-12-14T15:12:52;0.50;;;0.50;;
60885;SDS011;46736;41.654;-8.438;2023-12-14T15:14:52;0.45;;;0.45;;